createdAt,value
2023-01-23T00:00:55.433Z,10.27
2023-01-23T00:03:22.403Z,10.67
2023-01-23T00:06:03.239Z,13.20
2023-01-23T00:08:30.268Z,11.90
2023-01-23T00:10:57.340Z,11.70
2023-01-23T00:13:26.800Z,12.13
2023-01-23T00:15:53.608Z,13.90
2023-01-23T00:18:20.305Z,11.77
2023-01-23T00:20:47.052Z,11.70
2023-01-23T00:23:14.534Z,12.00
2023-01-23T00:25:41.224Z,11.97
2023-01-23T00:28:07.815Z,12.70
2023-01-23T00:30:34.684Z,12.30
2023-01-23T00:33:01.487Z,13.47
2023-01-23T00:35:28.299Z,13.17
2023-01-23T00:37:55.243Z,11.83
2023-01-23T00:40:22.211Z,13.30
2023-01-23T00:42:48.961Z,14.23
2023-01-23T00:45:15.661Z,12.53
2023-01-23T00:47:42.316Z,14.27
2023-01-23T00:50:09.747Z,12.90
2023-01-23T00:52:36.392Z,13.57
2023-01-23T00:55:03.788Z,12.00
2023-01-23T00:57:30.485Z,13.73
2023-01-23T00:59:57.128Z,14.80
2023-01-23T01:02:23.795Z,14.77
2023-01-23T01:04:50.486Z,12.23
2023-01-23T01:07:17.179Z,14.53
2023-01-23T01:09:43.824Z,14.53
2023-01-23T01:12:10.456Z,11.50
2023-01-23T01:14:37.098Z,15.47
2023-01-23T01:17:03.783Z,10.07
2023-01-23T01:19:30.448Z,15.30
2023-01-23T01:21:57.082Z,15.50
2023-01-23T01:24:23.775Z,16.60
2023-01-23T01:26:50.437Z,14.83
2023-01-23T01:29:17.033Z,15.93
2023-01-23T01:31:43.745Z,13.90
2023-01-23T01:34:10.397Z,14.83
2023-01-23T01:36:37.036Z,13.10
2023-01-23T01:39:03.935Z,14.33
2023-01-23T01:41:31.042Z,13.40
2023-01-23T01:43:59.977Z,13.27
2023-01-23T01:46:28.836Z,14.13
2023-01-23T01:49:09.728Z,13.17
2023-01-23T01:51:45.259Z,12.67
2023-01-23T01:54:30.004Z,17.20
2023-01-23T01:57:24.279Z,13.43
2023-01-23T02:00:20.513Z,11.97
2023-01-23T02:02:58.830Z,12.40
2023-01-23T02:05:31.201Z,12.63
2023-01-23T02:08:22.535Z,15.87
2023-01-23T02:10:49.736Z,13.73
2023-01-23T02:13:22.364Z,14.97
2023-01-23T02:15:49.662Z,11.83
2023-01-23T02:18:16.565Z,15.53
2023-01-23T02:20:43.310Z,14.30
2023-01-23T02:23:36.420Z,15.13
2023-01-23T02:26:09.507Z,13.40
2023-01-23T02:28:41.306Z,12.80
2023-01-23T02:31:08.433Z,15.80
2023-01-23T02:33:35.093Z,15.13
2023-01-23T02:36:05.320Z,15.27
2023-01-23T02:39:02.529Z,14.17
2023-01-23T02:41:50.039Z,14.00
2023-01-23T02:44:27.953Z,14.03
2023-01-23T02:46:55.997Z,15.17
2023-01-23T02:49:22.699Z,15.63
2023-01-23T02:51:50.892Z,19.63
2023-01-23T02:54:18.617Z,14.17
2023-01-23T02:56:45.405Z,17.50
2023-01-23T02:59:31.081Z,16.80
2023-01-23T03:01:57.918Z,15.47
2023-01-23T03:04:25.071Z,15.83
2023-01-23T03:06:52.164Z,14.37
2023-01-23T03:09:19.509Z,18.43
2023-01-23T03:11:47.152Z,15.40
2023-01-23T03:14:16.504Z,16.77
2023-01-23T03:16:45.087Z,15.70
2023-01-23T03:19:11.821Z,18.30
2023-01-23T03:21:40.416Z,15.77
2023-01-23T03:24:12.999Z,17.60
2023-01-23T03:26:44.141Z,18.27
2023-01-23T03:29:37.315Z,16.23
2023-01-23T03:32:04.699Z,20.67
2023-01-23T03:34:32.313Z,17.00
2023-01-23T03:37:00.378Z,17.63
2023-01-23T03:39:46.168Z,17.13
2023-01-23T03:42:12.790Z,18.27
2023-01-23T03:44:39.706Z,18.83
2023-01-23T03:47:06.648Z,17.60
2023-01-23T03:49:33.489Z,18.03
2023-01-23T03:52:00.365Z,17.43
2023-01-23T03:54:27.008Z,18.10
2023-01-23T03:56:54.285Z,19.40
2023-01-23T03:59:21.204Z,18.10
2023-01-23T04:01:48.182Z,19.93
2023-01-23T04:04:14.960Z,18.93
2023-01-23T04:06:41.604Z,19.23
2023-01-23T04:09:08.269Z,19.87
2023-01-23T04:11:34.942Z,19.77
2023-01-23T04:14:01.564Z,19.77
2023-01-23T04:16:28.723Z,19.10
2023-01-23T04:18:55.575Z,18.17
2023-01-23T04:21:22.477Z,20.03
2023-01-23T04:23:49.084Z,15.00
2023-01-23T04:26:15.734Z,17.93
2023-01-23T04:28:42.387Z,16.77
2023-01-23T04:31:09.479Z,15.67
2023-01-23T04:33:36.592Z,15.47
2023-01-23T04:36:05.923Z,15.77
2023-01-23T04:38:33.488Z,15.47
2023-01-23T04:41:00.328Z,17.30
2023-01-23T04:43:27.069Z,16.07
2023-01-23T04:45:55.013Z,17.47
2023-01-23T04:48:22.390Z,14.50
2023-01-23T04:50:50.384Z,16.43
2023-01-23T04:53:17.821Z,15.53
2023-01-23T04:55:47.271Z,14.03
2023-01-23T04:58:13.911Z,15.77
2023-01-23T05:00:40.600Z,14.17
2023-01-23T05:03:07.249Z,14.47
2023-01-23T05:05:34.725Z,15.00
2023-01-23T05:08:01.469Z,15.17
2023-01-23T05:10:28.171Z,13.93
2023-01-23T05:12:54.844Z,14.67
2023-01-23T05:15:21.477Z,15.37
2023-01-23T05:17:48.898Z,16.80
2023-01-23T05:20:15.702Z,17.23
2023-01-23T05:22:52.138Z,16.03
2023-01-23T05:25:26.318Z,16.80
2023-01-23T05:27:53.348Z,15.20
2023-01-23T05:30:22.556Z,15.27
2023-01-23T05:32:49.666Z,15.57
2023-01-23T05:35:17.295Z,17.23
2023-01-23T05:37:43.917Z,17.77
2023-01-23T05:40:13.260Z,18.73
2023-01-23T05:42:39.999Z,16.53
2023-01-23T05:45:07.067Z,15.13
2023-01-23T05:47:33.978Z,16.17
2023-01-23T05:50:01.015Z,15.60
2023-01-23T05:52:27.862Z,16.47
2023-01-23T05:54:54.483Z,15.80
2023-01-23T05:57:21.665Z,15.63
2023-01-23T05:59:48.321Z,16.97
2023-01-23T06:02:15.121Z,19.43
2023-01-23T06:04:41.935Z,17.00
2023-01-23T06:07:13.932Z,15.37
2023-01-23T06:09:40.732Z,13.97
2023-01-23T06:12:07.987Z,14.23
2023-01-23T06:14:34.795Z,17.17
2023-01-23T06:17:01.597Z,14.23
2023-01-23T06:19:28.276Z,14.77
2023-01-23T06:21:55.024Z,16.37
2023-01-23T06:24:21.644Z,15.17
2023-01-23T06:26:48.302Z,15.47
2023-01-23T06:29:14.982Z,14.47
2023-01-23T06:31:41.680Z,17.53
2023-01-23T06:34:08.715Z,18.37
2023-01-23T06:36:36.033Z,15.20
2023-01-23T06:39:02.981Z,13.27
2023-01-23T06:41:29.711Z,15.30
2023-01-23T06:43:56.468Z,13.70
2023-01-23T06:46:23.549Z,13.83
2023-01-23T06:48:50.236Z,15.30
2023-01-23T06:51:16.986Z,14.33
2023-01-23T06:53:43.700Z,14.43
2023-01-23T06:56:12.136Z,14.53
2023-01-23T06:58:38.835Z,17.07
2023-01-23T07:01:15.792Z,15.40
2023-01-23T07:03:44.788Z,18.00
2023-01-23T07:06:13.168Z,15.03
2023-01-23T07:08:40.356Z,15.57
2023-01-23T07:11:07.469Z,14.77
2023-01-23T07:13:34.433Z,14.83
2023-01-23T07:16:01.851Z,15.83
2023-01-23T07:18:30.194Z,15.20
2023-01-23T07:20:56.875Z,15.83
2023-01-23T07:23:23.665Z,14.33
2023-01-23T07:25:50.376Z,16.13
2023-01-23T07:28:17.071Z,16.10
2023-01-23T07:30:43.768Z,14.57
2023-01-23T07:33:11.841Z,17.77
2023-01-23T07:35:40.075Z,16.40
2023-01-23T07:38:06.727Z,17.80
2023-01-23T07:40:33.404Z,16.07
2023-01-23T07:43:00.059Z,16.53
2023-01-23T07:45:26.723Z,17.20
2023-01-23T07:47:53.413Z,17.27
2023-01-23T07:50:20.339Z,14.97
2023-01-23T07:52:47.297Z,14.17
2023-01-23T07:55:14.352Z,16.57
2023-01-23T07:57:41.025Z,16.00
2023-01-23T08:00:08.547Z,16.53
2023-01-23T08:02:35.196Z,17.53
2023-01-23T08:05:01.864Z,15.83
2023-01-23T08:07:28.664Z,15.27
2023-01-23T08:09:55.318Z,18.07
2023-01-23T08:12:21.947Z,16.00
2023-01-23T08:14:48.733Z,19.87
2023-01-23T08:17:15.351Z,16.97
2023-01-23T08:19:42.012Z,17.40
2023-01-23T08:22:08.622Z,19.03
2023-01-23T08:24:35.256Z,19.80
2023-01-23T08:27:01.911Z,18.00
2023-01-23T08:29:28.847Z,18.07
2023-01-23T08:31:55.597Z,22.17
2023-01-23T08:34:24.022Z,16.60
2023-01-23T08:36:50.840Z,15.97
2023-01-23T08:39:18.324Z,15.70
2023-01-23T08:41:44.919Z,18.33
2023-01-23T08:44:12.064Z,16.20
2023-01-23T08:46:38.729Z,17.97
2023-01-23T08:49:05.465Z,16.90
2023-01-23T08:51:32.137Z,16.43
2023-01-23T08:53:58.782Z,18.27
2023-01-23T08:56:25.584Z,18.63
2023-01-23T08:58:52.851Z,15.47
2023-01-23T09:01:26.792Z,16.63
2023-01-23T09:03:53.423Z,18.10
2023-01-23T09:06:21.872Z,15.30
2023-01-23T09:08:49.115Z,15.47
2023-01-23T09:11:16.743Z,15.63
2023-01-23T09:13:43.604Z,16.30
2023-01-23T09:16:10.521Z,16.97
2023-01-23T09:18:37.570Z,15.40
2023-01-23T09:21:17.925Z,18.53
2023-01-23T09:23:44.547Z,16.20
2023-01-23T09:26:14.356Z,17.80
2023-01-23T09:28:42.682Z,15.03
2023-01-23T09:31:12.227Z,14.20
2023-01-23T09:33:39.315Z,16.43
2023-01-23T09:36:09.090Z,14.60
2023-01-23T09:38:36.071Z,16.83
2023-01-23T09:41:26.792Z,13.90
2023-01-23T09:44:20.336Z,14.63
2023-01-23T09:47:04.774Z,14.77
2023-01-23T09:49:41.139Z,14.93
2023-01-23T09:52:18.911Z,13.80
2023-01-23T09:54:53.504Z,12.50
2023-01-23T09:57:34.859Z,13.50
2023-01-23T10:00:11.545Z,12.77
2023-01-23T10:02:38.423Z,12.43
2023-01-23T10:05:06.829Z,11.90
2023-01-23T10:07:48.125Z,13.93
2023-01-23T10:10:36.891Z,12.33
2023-01-23T10:13:16.997Z,12.87
2023-01-23T10:16:14.208Z,13.87
2023-01-23T10:18:58.787Z,12.93
2023-01-23T10:21:29.806Z,11.47
2023-01-23T10:24:23.727Z,12.70
2023-01-23T10:26:50.904Z,13.97
2023-01-23T10:29:36.692Z,13.63
2023-01-23T10:32:06.179Z,12.63
2023-01-23T10:34:37.745Z,11.50
2023-01-23T10:37:19.200Z,13.27
2023-01-23T10:40:02.523Z,11.27
2023-01-23T10:42:29.351Z,12.57
2023-01-23T10:44:56.022Z,9.73
2023-01-23T10:47:33.164Z,12.73
2023-01-23T10:50:00.984Z,13.07
2023-01-23T10:52:43.965Z,13.33
2023-01-23T10:55:20.294Z,11.27
2023-01-23T10:57:49.403Z,10.07
2023-01-23T11:00:19.286Z,11.27
2023-01-23T11:02:46.028Z,11.10
2023-01-23T11:05:40.388Z,13.23
2023-01-23T11:08:36.429Z,11.47
2023-01-23T11:11:20.435Z,11.70
2023-01-23T11:13:49.770Z,11.10
2023-01-23T11:16:26.393Z,11.77
2023-01-23T11:19:18.235Z,10.80
2023-01-23T11:22:00.771Z,13.57
2023-01-23T11:24:40.690Z,17.17
2023-01-23T11:27:18.876Z,16.00
2023-01-23T11:30:10.634Z,13.17
2023-01-23T11:32:58.718Z,15.90
2023-01-23T11:35:34.228Z,15.13
2023-01-23T11:38:03.785Z,16.23
2023-01-23T11:40:31.013Z,14.33
2023-01-23T11:42:57.682Z,17.43
2023-01-23T11:45:38.834Z,16.90
2023-01-23T11:48:36.070Z,15.60
2023-01-23T11:51:16.101Z,17.10
2023-01-23T11:54:17.051Z,16.80
2023-01-23T11:56:59.927Z,16.20
2023-01-23T12:00:07.289Z,15.77
2023-01-23T12:03:07.506Z,17.93
2023-01-23T12:05:45.348Z,12.63
2023-01-23T12:08:19.526Z,15.80
2023-01-23T12:11:11.994Z,16.63
2023-01-23T12:13:57.457Z,13.63
2023-01-23T12:16:40.491Z,15.93
2023-01-23T12:19:34.245Z,17.53
2023-01-23T12:22:37.542Z,16.67
2023-01-23T12:25:23.328Z,16.43
2023-01-23T12:28:01.518Z,14.80
2023-01-23T12:30:38.872Z,15.70
2023-01-23T12:33:17.318Z,16.47
2023-01-23T12:35:59.664Z,16.73
2023-01-23T12:38:36.775Z,15.27
2023-01-23T12:41:29.257Z,14.20
2023-01-23T12:43:55.888Z,14.67
2023-01-23T12:46:43.472Z,18.67
2023-01-23T12:49:34.328Z,17.00
2023-01-23T12:52:29.872Z,15.47
2023-01-23T12:55:06.736Z,14.43
2023-01-23T12:57:52.428Z,15.10
2023-01-23T13:00:38.719Z,18.33
2023-01-23T13:03:47.024Z,16.00
2023-01-23T13:06:31.923Z,20.00
2023-01-23T13:09:20.682Z,14.33
2023-01-23T13:12:21.447Z,16.83
2023-01-23T13:15:12.867Z,15.70
2023-01-23T13:17:41.836Z,16.73
2023-01-23T13:20:44.939Z,13.40
2023-01-23T13:23:32.252Z,15.23
2023-01-23T13:26:11.306Z,16.70
2023-01-23T13:28:46.035Z,16.97
2023-01-23T13:31:27.466Z,14.23
2023-01-23T13:34:06.646Z,12.77
2023-01-23T13:36:41.496Z,12.80
2023-01-23T13:39:17.178Z,12.60
2023-01-23T13:41:48.368Z,11.87
2023-01-23T13:44:24.821Z,10.77
2023-01-23T14:21:41.801Z,12.93
2023-01-23T14:24:31.046Z,11.73
2023-01-23T14:27:08.388Z,12.83
2023-01-23T14:29:35.811Z,14.37
2023-01-23T14:32:02.709Z,11.93
2023-01-23T14:34:29.489Z,13.43
2023-01-23T14:37:08.770Z,18.07
2023-01-23T14:39:36.258Z,12.77
2023-01-23T14:42:05.327Z,11.53
2023-01-23T14:44:43.439Z,11.97
2023-01-23T14:47:21.486Z,11.43
2023-01-23T14:49:51.159Z,11.67
2023-01-23T14:52:24.880Z,12.13
2023-01-23T14:54:54.332Z,11.03
2023-01-23T14:57:26.654Z,13.63
2023-01-23T14:59:56.678Z,11.03
2023-01-23T15:02:35.295Z,12.87
2023-01-23T15:05:12.469Z,12.07
2023-01-23T15:08:06.079Z,10.87
2023-01-23T15:10:48.842Z,12.53
2023-01-23T15:13:34.354Z,10.60
2023-01-23T15:16:09.374Z,10.63
2023-01-23T15:18:36.747Z,12.50
2023-01-23T15:21:06.488Z,11.10
2023-01-23T15:23:40.399Z,9.77
2023-01-23T15:26:30.830Z,12.03
2023-01-23T15:29:11.024Z,9.33
2023-01-23T15:31:40.774Z,12.70
2023-01-23T15:34:16.845Z,11.87
2023-01-23T15:37:09.833Z,13.53
2023-01-23T15:40:04.101Z,11.37
2023-01-23T15:42:34.681Z,13.70
2023-01-23T15:45:03.608Z,14.93
2023-01-23T15:47:31.453Z,12.47
2023-01-23T15:50:01.789Z,13.73
2023-01-23T15:52:48.120Z,12.10
2023-01-23T15:55:15.520Z,15.30
2023-01-23T15:57:43.175Z,13.20
2023-01-23T16:00:18.262Z,13.80
2023-01-23T16:02:55.696Z,12.23
2023-01-23T16:05:25.582Z,15.93
2023-01-23T16:07:53.839Z,16.23
2023-01-23T16:10:24.015Z,14.37
2023-01-23T16:12:52.975Z,13.67
2023-01-23T16:15:22.525Z,17.73
2023-01-23T16:17:49.962Z,14.77
2023-01-23T16:20:18.763Z,14.13
2023-01-23T16:22:48.916Z,15.27
2023-01-23T16:25:19.936Z,14.77
2023-01-23T16:27:46.562Z,14.57
2023-01-23T16:30:17.764Z,16.90
2023-01-23T16:32:44.692Z,14.90
2023-01-23T16:35:13.079Z,14.13
2023-01-23T16:37:45.249Z,13.63
2023-01-23T16:40:21.571Z,14.70
2023-01-23T16:42:49.878Z,16.67
2023-01-23T16:45:26.968Z,15.57
2023-01-23T16:47:54.278Z,17.10
2023-01-23T16:50:25.992Z,16.70
2023-01-23T16:53:02.412Z,16.93
2023-01-23T16:55:36.489Z,14.97
2023-01-23T16:58:06.509Z,15.13
2023-01-23T17:00:35.437Z,15.93
2023-01-23T17:03:06.887Z,16.13
2023-01-23T17:05:33.683Z,16.87
2023-01-23T17:08:00.302Z,17.87
2023-01-23T17:10:37.986Z,15.93
2023-01-23T17:13:10.939Z,17.40
2023-01-23T17:15:37.647Z,16.57
2023-01-23T17:18:04.526Z,17.23
2023-01-23T17:20:31.903Z,17.00
2023-01-23T17:22:58.666Z,16.43
2023-01-23T17:25:26.609Z,17.33
2023-01-23T17:28:11.114Z,15.60
2023-01-23T17:30:40.293Z,15.13
2023-01-23T17:33:18.312Z,16.80
2023-01-23T17:35:46.677Z,17.33
2023-01-23T17:38:24.449Z,19.33
2023-01-23T17:40:52.794Z,17.97
2023-01-23T17:43:20.875Z,18.37
2023-01-23T17:45:50.802Z,17.90
2023-01-23T17:48:25.018Z,19.47
2023-01-23T17:50:51.720Z,18.63
2023-01-23T17:53:19.412Z,17.33
2023-01-23T17:55:49.079Z,18.60
2023-01-23T17:58:16.113Z,16.83
2023-01-23T18:00:44.618Z,16.27
2023-01-23T18:03:17.448Z,19.57
2023-01-23T18:05:44.198Z,18.37
2023-01-23T18:08:15.339Z,18.27
2023-01-23T18:10:45.198Z,18.30
2023-01-23T18:13:24.950Z,15.40
2023-01-23T18:16:19.998Z,18.07
2023-01-23T18:18:52.957Z,19.03
2023-01-23T18:21:20.796Z,18.80
2023-01-23T18:23:48.079Z,17.80
2023-01-23T18:26:43.831Z,18.70
2023-01-23T18:29:11.007Z,18.20
2023-01-23T18:32:03.714Z,18.17
2023-01-23T18:34:53.773Z,18.17
2023-01-23T18:37:20.402Z,16.20
2023-01-23T18:39:55.881Z,19.63
2023-01-23T18:42:40.573Z,20.40
2023-01-23T18:45:23.761Z,17.57
2023-01-23T18:47:53.961Z,18.77
2023-01-23T18:50:22.877Z,19.93
2023-01-23T18:53:35.377Z,19.50
2023-01-23T18:56:30.318Z,16.30
2023-01-23T18:59:19.199Z,16.53
2023-01-23T19:02:26.814Z,15.77
2023-01-23T19:05:13.752Z,14.50
2023-01-23T19:07:40.830Z,14.40
2023-01-23T19:10:19.038Z,15.10
2023-01-23T19:12:54.487Z,15.33
2023-01-23T19:15:21.561Z,15.80
2023-01-23T19:17:52.786Z,15.10
2023-01-23T19:20:24.750Z,14.10
2023-01-23T19:23:28.832Z,14.80
2023-01-23T19:25:55.711Z,16.13
2023-01-23T19:28:22.691Z,19.53
2023-01-23T19:30:49.863Z,19.90
2023-01-23T19:33:18.404Z,18.27
2023-01-23T19:35:46.415Z,17.23
2023-01-23T19:38:14.900Z,16.83
2023-01-23T19:40:42.455Z,17.30
2023-01-23T19:43:17.281Z,19.87
2023-01-23T19:45:47.379Z,16.70
2023-01-23T19:48:14.418Z,18.93
2023-01-23T19:50:41.183Z,15.33
2023-01-23T19:53:09.884Z,18.20
2023-01-23T19:55:39.637Z,17.77
2023-01-23T19:58:06.714Z,21.97
2023-01-23T20:00:35.886Z,17.03
2023-01-23T20:03:02.849Z,18.87
2023-01-23T20:05:29.592Z,21.23
2023-01-23T20:07:56.429Z,19.83
2023-01-23T20:10:23.325Z,18.30
2023-01-23T20:12:55.225Z,20.97
2023-01-23T20:15:24.151Z,18.30
2023-01-23T20:17:52.524Z,20.47
2023-01-23T20:20:19.761Z,18.33
2023-01-23T20:22:46.607Z,19.23
2023-01-23T20:25:15.737Z,19.27
2023-01-23T20:27:43.033Z,16.77
2023-01-23T20:30:14.581Z,19.77
2023-01-23T20:32:41.425Z,19.80
2023-01-23T20:35:08.505Z,20.83
2023-01-23T20:37:35.302Z,21.97
2023-01-23T20:40:02.033Z,15.40
2023-01-23T20:42:28.750Z,17.47
2023-01-23T20:44:55.421Z,17.37
2023-01-23T20:47:22.370Z,15.30
2023-01-23T20:49:49.389Z,16.83
2023-01-23T20:52:34.601Z,17.03
2023-01-23T20:55:01.236Z,16.53
2023-01-23T20:57:48.168Z,16.43
2023-01-23T21:00:15.509Z,16.53
2023-01-23T21:02:42.231Z,16.03
2023-01-23T21:05:09.136Z,16.57
2023-01-23T21:07:35.892Z,17.57
2023-01-23T21:10:02.799Z,17.37
2023-01-23T21:12:29.531Z,18.23
2023-01-23T21:14:56.775Z,18.10
2023-01-23T21:17:23.510Z,17.03
2023-01-23T21:19:50.692Z,16.93
2023-01-23T21:22:17.444Z,19.70
2023-01-23T21:24:44.973Z,18.90
2023-01-23T21:27:13.884Z,16.37
2023-01-23T21:29:41.253Z,16.73
2023-01-23T21:32:08.054Z,18.03
2023-01-23T21:34:34.821Z,17.70
2023-01-23T21:37:01.661Z,16.40
2023-01-23T21:39:28.318Z,17.00
2023-01-23T21:41:55.024Z,14.80
2023-01-23T21:44:21.669Z,14.97
2023-01-23T21:46:49.130Z,18.03
2023-01-23T21:49:15.839Z,17.27
2023-01-23T21:51:42.696Z,16.33
2023-01-23T21:54:09.533Z,14.70
2023-01-23T21:56:36.364Z,17.03
2023-01-23T21:59:03.110Z,17.37
2023-01-23T22:01:33.491Z,19.23
2023-01-23T22:04:03.442Z,17.23
2023-01-23T22:06:31.359Z,18.27
2023-01-23T22:09:00.249Z,17.80
2023-01-23T22:11:27.020Z,17.00
2023-01-23T22:13:54.022Z,15.77
2023-01-23T22:16:22.847Z,15.97
2023-01-23T22:18:55.094Z,19.67
2023-01-23T22:21:21.885Z,17.37
2023-01-23T22:23:48.529Z,18.37
2023-01-23T22:26:15.174Z,16.60
2023-01-23T22:28:42.315Z,15.00
2023-01-23T22:31:11.819Z,18.80
2023-01-23T22:33:41.185Z,16.90
2023-01-23T22:36:12.095Z,17.33
2023-01-23T22:38:38.844Z,16.60
2023-01-23T22:41:07.972Z,17.13
2023-01-23T22:43:34.932Z,18.80
2023-01-23T22:46:08.428Z,18.40
2023-01-23T22:48:35.981Z,17.90
2023-01-23T22:51:04.875Z,16.77
2023-01-23T22:53:32.175Z,16.50
2023-01-23T22:55:58.849Z,16.23
2023-01-23T22:58:25.716Z,17.90
2023-01-23T23:00:53.420Z,17.67
2023-01-23T23:03:21.175Z,18.20
2023-01-23T23:05:55.676Z,16.67
2023-01-23T23:08:22.294Z,18.77
2023-01-23T23:10:58.624Z,17.43
2023-01-23T23:13:25.319Z,17.03
2023-01-23T23:15:51.998Z,19.23
2023-01-23T23:18:18.664Z,16.40
2023-01-23T23:20:45.297Z,18.30
2023-01-23T23:23:12.048Z,17.63
2023-01-23T23:25:38.785Z,17.13
2023-01-23T23:28:05.522Z,15.27
2023-01-23T23:30:32.229Z,17.20
2023-01-23T23:32:59.091Z,16.60
2023-01-23T23:35:25.781Z,19.90
2023-01-23T23:37:52.423Z,14.93
2023-01-23T23:40:19.109Z,16.63
2023-01-23T23:42:45.784Z,18.33
2023-01-23T23:45:12.447Z,17.73
2023-01-23T23:47:39.103Z,17.10
2023-01-23T23:50:07.891Z,17.73
2023-01-23T23:52:36.056Z,15.07
2023-01-23T23:55:03.687Z,15.10
2023-01-23T23:57:30.647Z,17.73
2023-01-23T23:59:57.391Z,15.40
